createdAt,value
2024-05-09T00:00:15.515Z,35.08
2024-05-09T00:01:10.588Z,35.10
2024-05-09T00:02:09.560Z,35.10
2024-05-09T00:03:10.839Z,35.10
2024-05-09T00:04:09.505Z,35.09
2024-05-09T00:05:09.619Z,35.09
2024-05-09T00:06:09.730Z,35.09
2024-05-09T00:07:09.508Z,35.08
2024-05-09T00:08:09.751Z,35.07
2024-05-09T00:09:09.479Z,35.03
2024-05-09T00:10:17.801Z,35.05
2024-05-09T00:11:10.538Z,35.07
2024-05-09T00:12:09.548Z,35.05
2024-05-09T00:13:10.008Z,35.06
2024-05-09T00:14:09.392Z,35.04
2024-05-09T00:15:09.331Z,35.05
2024-05-09T00:16:09.323Z,35.03
2024-05-09T00:17:09.335Z,35.03
2024-05-09T00:18:09.541Z,35.00
2024-05-09T00:19:09.292Z,35.02
2024-05-09T00:20:17.478Z,35.04
2024-05-09T00:21:10.224Z,35.03
2024-05-09T00:22:09.179Z,35.02
2024-05-09T00:23:09.557Z,35.04
2024-05-09T00:24:09.123Z,35.01
2024-05-09T00:25:09.101Z,35.02
2024-05-09T00:26:09.198Z,35.02
2024-05-09T00:27:11.350Z,35.01
2024-05-09T00:28:09.061Z,35.00
2024-05-09T00:29:09.099Z,35.00
2024-05-09T00:30:14.287Z,35.01
2024-05-09T00:31:09.968Z,35.00
2024-05-09T00:32:09.026Z,35.02
2024-05-09T00:33:10.397Z,35.00
2024-05-09T00:34:09.067Z,34.96
2024-05-09T00:35:09.047Z,34.99
2024-05-09T00:36:08.918Z,34.97
2024-05-09T00:37:08.896Z,34.98
2024-05-09T00:38:08.945Z,34.96
2024-05-09T00:39:08.832Z,34.99
2024-05-09T00:40:15.355Z,34.98
2024-05-09T00:41:09.889Z,34.97
2024-05-09T00:42:08.755Z,34.95
2024-05-09T00:43:08.767Z,34.98
2024-05-09T00:44:08.708Z,34.97
2024-05-09T00:45:08.688Z,34.95
2024-05-09T00:46:08.650Z,34.95
2024-05-09T00:47:08.716Z,34.96
2024-05-09T00:48:09.864Z,34.95
2024-05-09T00:49:08.627Z,34.93
2024-05-09T00:50:12.894Z,34.92
2024-05-09T00:51:09.521Z,34.95
2024-05-09T00:52:08.514Z,34.94
2024-05-09T00:53:08.511Z,34.94
2024-05-09T00:54:08.458Z,34.95
2024-05-09T00:55:08.449Z,34.92
2024-05-09T00:56:08.443Z,34.93
2024-05-09T00:57:08.389Z,34.91
2024-05-09T00:58:08.373Z,34.90
2024-05-09T00:59:08.352Z,34.91
2024-05-09T01:00:22.118Z,34.89
2024-05-09T01:01:09.338Z,34.89
2024-05-09T01:02:08.339Z,34.91
2024-05-09T01:03:09.703Z,34.90
2024-05-09T01:04:08.317Z,34.92
2024-05-09T01:05:08.232Z,34.88
2024-05-09T01:06:08.170Z,34.90
2024-05-09T01:07:08.150Z,34.87
2024-05-09T01:08:08.522Z,34.87
2024-05-09T01:09:08.095Z,34.89
2024-05-09T01:10:14.099Z,34.89
2024-05-09T01:11:09.139Z,34.89
2024-05-09T01:12:08.154Z,34.88
2024-05-09T01:13:07.993Z,34.87
2024-05-09T01:14:08.020Z,34.86
2024-05-09T01:15:07.946Z,34.87
2024-05-09T01:16:07.924Z,34.87
2024-05-09T01:17:07.971Z,34.85
2024-05-09T01:18:08.119Z,34.85
2024-05-09T01:19:07.968Z,34.84
2024-05-09T01:20:10.879Z,34.84
2024-05-09T01:21:08.835Z,34.87
2024-05-09T01:22:07.774Z,34.84
2024-05-09T01:23:07.876Z,34.84
2024-05-09T01:24:07.725Z,34.85
2024-05-09T01:25:07.685Z,34.82
2024-05-09T01:26:07.708Z,34.83
2024-05-09T01:27:07.645Z,34.83
2024-05-09T01:28:07.699Z,34.82
2024-05-09T01:29:07.631Z,34.83
2024-05-09T01:30:09.662Z,34.83
2024-05-09T01:31:08.521Z,34.83
2024-05-09T01:32:07.562Z,34.82
2024-05-09T01:33:09.468Z,34.84
2024-05-09T01:34:07.496Z,34.84
2024-05-09T01:35:07.415Z,34.81
2024-05-09T01:36:07.370Z,34.81
2024-05-09T01:37:07.354Z,34.83
2024-05-09T01:38:07.425Z,34.83
2024-05-09T01:39:07.284Z,34.81
2024-05-09T01:40:12.040Z,34.80
2024-05-09T01:41:08.256Z,34.83
2024-05-09T01:42:07.205Z,34.84
2024-05-09T01:43:07.480Z,34.80
2024-05-09T01:44:07.186Z,34.79
2024-05-09T01:45:07.123Z,34.80
2024-05-09T01:46:07.101Z,34.82
2024-05-09T01:47:07.151Z,34.81
2024-05-09T01:48:07.310Z,34.80
2024-05-09T01:49:07.371Z,34.79
2024-05-09T01:50:10.676Z,34.79
2024-05-09T01:51:06.970Z,34.81
2024-05-09T01:52:06.929Z,34.81
2024-05-09T01:53:06.942Z,34.81
2024-05-09T01:54:06.863Z,34.81
2024-05-09T01:55:07.068Z,34.80
2024-05-09T01:56:06.854Z,34.79
2024-05-09T01:57:06.784Z,34.83
2024-05-09T01:58:06.772Z,34.80
2024-05-09T01:59:06.846Z,34.80
2024-05-09T02:00:07.938Z,34.76
2024-05-09T02:01:06.714Z,34.78
2024-05-09T02:02:06.806Z,34.76
2024-05-09T02:03:06.794Z,34.78
2024-05-09T02:04:07.039Z,34.79
2024-05-09T02:05:06.837Z,34.78
2024-05-09T02:06:06.801Z,34.78
2024-05-09T02:07:06.586Z,34.78
2024-05-09T02:08:06.564Z,34.78
2024-05-09T02:09:06.475Z,34.77
2024-05-09T02:10:13.659Z,34.75
2024-05-09T02:11:07.495Z,34.78
2024-05-09T02:12:06.568Z,34.78
2024-05-09T02:13:06.361Z,34.76
2024-05-09T02:14:06.422Z,34.78
2024-05-09T02:15:06.322Z,34.77
2024-05-09T02:16:06.316Z,34.78
2024-05-09T02:17:06.282Z,34.78
2024-05-09T02:18:06.458Z,34.78
2024-05-09T02:19:06.403Z,34.77
2024-05-09T02:20:06.575Z,34.76
2024-05-09T02:21:06.265Z,34.75
2024-05-09T02:22:06.158Z,34.75
2024-05-09T02:23:06.752Z,34.75
2024-05-09T02:24:06.106Z,34.74
2024-05-09T02:25:06.073Z,34.76
2024-05-09T02:26:06.108Z,34.77
2024-05-09T02:27:06.125Z,34.75
2024-05-09T02:28:05.995Z,34.73
2024-05-09T02:29:06.000Z,34.75
2024-05-09T02:30:12.298Z,34.76
2024-05-09T02:31:06.916Z,34.76
2024-05-09T02:32:05.945Z,34.78
2024-05-09T02:33:06.122Z,34.75
2024-05-09T02:34:06.038Z,34.74
2024-05-09T02:35:05.866Z,34.74
2024-05-09T02:36:05.828Z,34.74
2024-05-09T02:37:05.874Z,34.74
2024-05-09T02:38:05.871Z,34.76
2024-05-09T02:39:05.733Z,34.74
2024-05-09T02:40:07.102Z,34.75
2024-05-09T02:41:05.748Z,34.74
2024-05-09T02:42:05.671Z,34.73
2024-05-09T02:43:05.926Z,34.73
2024-05-09T02:44:05.622Z,34.74
2024-05-09T02:45:05.581Z,34.73
2024-05-09T02:46:05.554Z,34.74
2024-05-09T02:47:05.626Z,34.71
2024-05-09T02:48:05.729Z,34.71
2024-05-09T02:49:05.595Z,34.72
2024-05-09T02:50:07.791Z,34.73
2024-05-09T02:51:05.857Z,34.71
2024-05-09T02:52:05.567Z,34.72
2024-05-09T02:53:05.776Z,34.71
2024-05-09T02:54:05.549Z,34.69
2024-05-09T02:55:05.524Z,34.71
2024-05-09T02:56:05.610Z,34.68
2024-05-09T02:57:05.531Z,34.71
2024-05-09T02:58:05.476Z,34.70
2024-05-09T02:59:05.482Z,34.69
2024-05-09T03:00:07.673Z,34.68
2024-05-09T03:01:05.491Z,34.68
2024-05-09T03:02:05.494Z,34.66
2024-05-09T03:03:05.527Z,34.68
2024-05-09T03:04:05.499Z,34.67
2024-05-09T03:05:05.380Z,34.68
2024-05-09T03:06:05.349Z,34.67
2024-05-09T03:07:05.320Z,34.66
2024-05-09T03:08:05.360Z,34.66
2024-05-09T03:09:05.241Z,34.66
2024-05-09T03:10:11.872Z,34.67
2024-05-09T03:11:06.285Z,34.67
2024-05-09T03:12:05.231Z,34.64
2024-05-09T03:13:05.141Z,34.65
2024-05-09T03:14:05.222Z,34.64
2024-05-09T03:15:05.079Z,34.63
2024-05-09T03:16:05.056Z,34.62
2024-05-09T03:17:05.059Z,34.64
2024-05-09T03:18:05.315Z,34.63
2024-05-09T03:19:05.083Z,34.63
2024-05-09T03:20:06.998Z,34.62
2024-05-09T03:21:05.038Z,34.63
2024-05-09T03:22:04.887Z,34.63
2024-05-09T03:23:05.473Z,34.64
2024-05-09T03:24:04.827Z,34.63
2024-05-09T03:25:04.798Z,34.63
2024-05-09T03:26:04.841Z,34.61
2024-05-09T03:27:04.765Z,34.62
2024-05-09T03:28:04.752Z,34.64
2024-05-09T03:29:04.898Z,34.62
2024-05-09T03:30:07.319Z,34.61
2024-05-09T03:31:04.644Z,34.64
2024-05-09T03:32:04.738Z,34.62
2024-05-09T03:33:04.845Z,34.63
2024-05-09T03:34:04.880Z,34.62
2024-05-09T03:35:04.594Z,34.60
2024-05-09T03:36:06.198Z,34.59
2024-05-09T03:37:04.513Z,34.63
2024-05-09T03:38:04.563Z,34.60
2024-05-09T03:39:04.432Z,34.61
2024-05-09T03:40:07.341Z,34.58
2024-05-09T03:41:05.445Z,34.61
2024-05-09T03:42:04.346Z,34.60
2024-05-09T03:43:04.330Z,34.57
2024-05-09T03:44:04.309Z,34.58
2024-05-09T03:45:04.270Z,34.58
2024-05-09T03:46:04.236Z,34.57
2024-05-09T03:47:04.366Z,34.58
2024-05-09T03:48:04.407Z,34.57
2024-05-09T03:49:04.287Z,34.57
2024-05-09T03:50:05.582Z,34.57
2024-05-09T03:51:04.236Z,34.60
2024-05-09T03:52:04.077Z,34.61
2024-05-09T03:53:04.239Z,34.60
2024-05-09T03:54:04.023Z,34.59
2024-05-09T03:55:04.001Z,34.59
2024-05-09T03:56:04.036Z,34.57
2024-05-09T03:57:03.939Z,34.57
2024-05-09T03:58:03.917Z,34.58
2024-05-09T03:59:04.009Z,34.57
2024-05-09T04:00:05.509Z,34.56
2024-05-09T04:01:03.836Z,34.57
2024-05-09T04:02:03.926Z,34.57
2024-05-09T04:03:04.152Z,34.56
2024-05-09T04:04:03.768Z,34.59
2024-05-09T04:05:03.782Z,34.58
2024-05-09T04:06:03.680Z,34.57
2024-05-09T04:07:03.653Z,34.58
2024-05-09T04:08:03.691Z,34.58
2024-05-09T04:09:03.598Z,34.59
2024-05-09T04:10:05.264Z,34.57
2024-05-09T04:11:03.768Z,34.58
2024-05-09T04:12:03.635Z,34.57
2024-05-09T04:13:04.201Z,34.57
2024-05-09T04:14:03.526Z,34.56
2024-05-09T04:15:03.417Z,34.57
2024-05-09T04:16:03.405Z,34.57
2024-05-09T04:17:03.409Z,34.57
2024-05-09T04:18:03.525Z,34.57
2024-05-09T04:19:03.501Z,34.56
2024-05-09T04:20:03.318Z,34.55
2024-05-09T04:21:03.331Z,34.56
2024-05-09T04:22:03.224Z,34.56
2024-05-09T04:23:03.258Z,34.56
2024-05-09T04:24:03.171Z,34.56
2024-05-09T04:25:03.131Z,34.54
2024-05-09T04:26:03.147Z,34.57
2024-05-09T04:27:03.096Z,34.55
2024-05-09T04:28:03.073Z,34.56
2024-05-09T04:29:03.056Z,34.57
2024-05-09T04:30:18.535Z,34.61
2024-05-09T04:31:22.476Z,34.63
2024-05-09T04:32:22.535Z,34.61
2024-05-09T04:33:22.743Z,34.60
2024-05-09T04:34:22.682Z,34.58
2024-05-09T04:35:22.533Z,34.56
2024-05-09T04:36:22.465Z,34.55
2024-05-09T04:37:22.473Z,34.54
2024-05-09T04:38:22.509Z,34.54
2024-05-09T04:39:22.496Z,34.53
2024-05-09T04:40:28.623Z,34.53
2024-05-09T04:41:23.627Z,34.57
2024-05-09T04:42:22.500Z,34.56
2024-05-09T04:43:22.505Z,34.56
2024-05-09T04:44:22.571Z,34.56
2024-05-09T04:45:22.516Z,34.52
2024-05-09T04:46:22.539Z,34.52
2024-05-09T04:47:22.655Z,34.54
2024-05-09T04:48:22.684Z,34.54
2024-05-09T04:49:22.610Z,34.55
2024-05-09T04:50:30.150Z,34.53
2024-05-09T04:51:23.628Z,34.54
2024-05-09T04:52:22.624Z,34.56
2024-05-09T04:53:22.698Z,34.55
2024-05-09T04:54:33.446Z,34.53
2024-05-09T04:55:23.643Z,34.52
2024-05-09T04:56:22.702Z,34.53
2024-05-09T04:57:22.687Z,34.53
2024-05-09T04:58:22.679Z,34.53
2024-05-09T04:59:22.716Z,34.52
2024-05-09T05:00:31.890Z,34.52
2024-05-09T05:01:23.806Z,34.53
2024-05-09T05:02:22.841Z,34.51
2024-05-09T05:03:23.081Z,34.52
2024-05-09T05:04:22.782Z,34.49
2024-05-09T05:05:22.790Z,34.51
2024-05-09T05:06:22.775Z,34.49
2024-05-09T05:07:22.810Z,34.50
2024-05-09T05:08:22.826Z,34.49
2024-05-09T05:09:22.818Z,34.47
2024-05-09T05:10:32.898Z,34.48
2024-05-09T05:11:23.964Z,34.49
2024-05-09T05:12:22.954Z,34.48
2024-05-09T05:13:23.944Z,34.50
2024-05-09T05:14:22.975Z,34.46
2024-05-09T05:15:22.902Z,34.48
2024-05-09T05:16:22.884Z,34.49
2024-05-09T05:17:23.083Z,34.48
2024-05-09T05:18:23.095Z,34.47
2024-05-09T05:19:22.989Z,34.45
2024-05-09T05:20:30.428Z,34.44
2024-05-09T05:21:24.078Z,34.45
2024-05-09T05:22:22.965Z,34.46
2024-05-09T05:23:23.261Z,34.45
2024-05-09T05:24:22.972Z,34.45
2024-05-09T05:25:22.984Z,34.44
2024-05-09T05:26:23.036Z,34.43
2024-05-09T05:27:23.019Z,34.43
2024-05-09T05:28:23.142Z,34.43
2024-05-09T05:29:23.094Z,34.44
2024-05-09T05:30:28.979Z,34.45
2024-05-09T05:31:24.083Z,34.44
2024-05-09T05:32:23.200Z,34.43
2024-05-09T05:33:23.602Z,34.42
2024-05-09T05:34:23.119Z,34.42
2024-05-09T05:35:23.274Z,34.42
2024-05-09T05:36:23.152Z,34.42
2024-05-09T05:37:23.161Z,34.41
2024-05-09T05:38:27.243Z,34.41
2024-05-09T05:39:24.186Z,34.42
2024-05-09T05:40:32.159Z,34.41
2024-05-09T05:41:24.249Z,34.43
2024-05-09T05:42:23.214Z,34.41
2024-05-09T05:43:23.219Z,34.43
2024-05-09T05:44:23.283Z,34.42
2024-05-09T05:45:23.256Z,34.42
2024-05-09T05:46:23.279Z,34.40
2024-05-09T05:47:23.396Z,34.43
2024-05-09T05:48:23.617Z,34.42
2024-05-09T05:49:23.548Z,34.41
2024-05-09T05:50:28.075Z,34.41
2024-05-09T05:51:24.402Z,34.42
2024-05-09T05:52:23.398Z,34.39
2024-05-09T05:53:23.464Z,34.38
2024-05-09T05:54:23.422Z,34.37
2024-05-09T05:55:23.443Z,34.38
2024-05-09T05:56:23.512Z,34.37
2024-05-09T05:57:23.465Z,34.38
2024-05-09T05:58:23.522Z,34.40
2024-05-09T05:59:23.524Z,34.39
2024-05-09T06:00:29.949Z,34.37
2024-05-09T06:01:24.561Z,34.39
2024-05-09T06:02:23.672Z,34.38
2024-05-09T06:03:23.609Z,34.37
2024-05-09T06:04:23.560Z,34.35
2024-05-09T06:06:23.583Z,34.35
2024-05-09T06:07:23.587Z,34.33
2024-05-09T06:08:24.701Z,34.32
2024-05-09T06:09:23.615Z,34.32
2024-05-09T06:10:26.450Z,34.32
2024-05-09T06:11:24.746Z,34.34
2024-05-09T06:12:23.742Z,34.30
2024-05-09T06:13:23.674Z,34.32
2024-05-09T06:14:23.696Z,34.31
2024-05-09T06:15:23.679Z,34.30
2024-05-09T06:16:23.702Z,34.28
2024-05-09T06:17:23.849Z,34.26
2024-05-09T06:18:23.983Z,34.28
2024-05-09T06:19:24.000Z,34.27
2024-05-09T06:20:31.953Z,34.24
2024-05-09T06:21:24.857Z,34.24
2024-05-09T06:22:23.775Z,34.25
2024-05-09T06:23:23.781Z,34.23
2024-05-09T06:24:23.773Z,34.22
2024-05-09T06:25:23.782Z,34.23
2024-05-09T06:26:23.811Z,34.23
2024-05-09T06:27:23.797Z,34.21
2024-05-09T06:28:23.822Z,34.21
2024-05-09T06:29:23.935Z,34.22
2024-05-09T06:30:30.561Z,34.20
2024-05-09T06:31:24.916Z,34.18
2024-05-09T06:32:24.005Z,34.17
2024-05-09T06:33:24.139Z,34.16
2024-05-09T06:34:24.007Z,34.16
2024-05-09T06:35:23.996Z,34.13
2024-05-09T06:36:23.999Z,34.12
2024-05-09T06:37:23.979Z,34.10
2024-05-09T06:38:24.026Z,34.08
2024-05-09T06:39:24.010Z,34.09
2024-05-09T06:40:29.273Z,34.11
2024-05-09T06:41:25.080Z,34.10
2024-05-09T06:42:24.019Z,34.10
2024-05-09T06:43:24.034Z,34.10
2024-05-09T06:44:24.164Z,34.09
2024-05-09T06:45:24.087Z,34.06
2024-05-09T06:46:24.070Z,34.07
2024-05-09T06:47:24.378Z,34.06
2024-05-09T06:48:24.251Z,34.05
2024-05-09T06:49:24.273Z,34.06
2024-05-09T06:50:28.019Z,34.06
2024-05-09T06:51:25.177Z,34.09
2024-05-09T06:52:24.149Z,34.04
2024-05-09T06:53:24.331Z,34.03
2024-05-09T06:54:24.159Z,34.00
2024-05-09T06:55:24.185Z,33.99
2024-05-09T06:56:24.301Z,34.00
2024-05-09T06:57:24.198Z,34.04
2024-05-09T06:58:24.206Z,34.03
2024-05-09T06:59:24.282Z,34.00
2024-05-09T07:00:30.848Z,33.96
2024-05-09T07:01:25.320Z,33.93
2024-05-09T07:02:24.393Z,33.93
2024-05-09T07:03:24.425Z,33.93
2024-05-09T07:04:24.398Z,33.94
2024-05-09T07:05:24.472Z,33.95
2024-05-09T07:06:24.311Z,33.93
2024-05-09T07:07:24.291Z,33.95
2024-05-09T07:08:24.376Z,33.93
2024-05-09T07:09:24.319Z,33.92
2024-05-09T07:10:29.167Z,33.90
2024-05-09T07:11:25.444Z,33.87
2024-05-09T07:12:24.631Z,33.88
2024-05-09T07:13:24.348Z,33.91
2024-05-09T07:14:24.435Z,33.88
2024-05-09T07:15:24.411Z,33.86
2024-05-09T07:16:24.483Z,33.84
2024-05-09T07:17:24.550Z,33.79
2024-05-09T07:18:24.545Z,33.82
2024-05-09T07:19:24.732Z,33.79
2024-05-09T07:20:32.374Z,33.80
2024-05-09T07:21:25.468Z,33.80
2024-05-09T07:22:24.419Z,33.79
2024-05-09T07:23:24.584Z,33.79
2024-05-09T07:24:24.454Z,33.79
2024-05-09T07:25:24.437Z,33.79
2024-05-09T07:26:24.478Z,33.78
2024-05-09T07:27:24.460Z,33.77
2024-05-09T07:28:24.474Z,33.75
2024-05-09T07:29:24.493Z,33.75
2024-05-09T07:30:32.502Z,33.77
2024-05-09T07:31:25.446Z,33.77
2024-05-09T07:32:24.642Z,33.73
2024-05-09T07:33:24.963Z,33.69
2024-05-09T07:34:24.487Z,33.69
2024-05-09T07:35:24.525Z,33.69
2024-05-09T07:36:24.500Z,33.69
2024-05-09T07:37:24.459Z,33.71
2024-05-09T07:38:24.579Z,33.68
2024-05-09T07:39:24.480Z,33.70
2024-05-09T07:40:32.487Z,33.65
2024-05-09T07:41:25.496Z,33.71
2024-05-09T07:42:24.533Z,33.72
2024-05-09T07:43:24.497Z,33.67
2024-05-09T07:44:24.599Z,33.69
2024-05-09T07:45:43.013Z,33.68
2024-05-09T07:47:20.382Z,33.70
2024-05-09T07:48:56.933Z,33.70
2024-05-09T07:50:00.927Z,33.71
2024-05-09T07:54:24.872Z,33.67
2024-05-09T07:55:24.768Z,33.63
2024-05-09T07:56:25.720Z,33.61
2024-05-09T07:57:24.663Z,33.62
2024-05-09T07:58:24.581Z,33.60
2024-05-09T07:59:24.603Z,33.60
2024-05-09T08:00:31.004Z,33.60
2024-05-09T08:01:26.056Z,33.64
2024-05-09T08:02:24.849Z,33.63
2024-05-09T08:03:24.752Z,33.62
2024-05-09T08:04:26.559Z,33.59
2024-05-09T08:05:24.696Z,33.55
2024-05-09T08:06:24.687Z,33.53
2024-05-09T08:07:24.678Z,33.53
2024-05-09T08:08:24.634Z,33.49
2024-05-09T08:09:24.632Z,33.49
2024-05-09T08:10:28.431Z,33.49
2024-05-09T08:11:24.746Z,33.49
2024-05-09T08:12:24.648Z,33.45
2024-05-09T08:13:24.705Z,33.48
2024-05-09T08:14:24.733Z,33.47
2024-05-09T08:15:24.661Z,33.45
2024-05-09T08:16:24.773Z,33.44
2024-05-09T08:17:24.838Z,33.44
2024-05-09T08:18:24.844Z,33.42
2024-05-09T08:19:24.727Z,33.39
2024-05-09T08:20:31.019Z,33.42
2024-05-09T08:21:25.666Z,33.43
2024-05-09T08:22:24.668Z,33.38
2024-05-09T08:23:24.682Z,33.37
2024-05-09T08:24:24.710Z,33.37
2024-05-09T08:25:24.750Z,33.38
2024-05-09T08:26:24.707Z,33.36
2024-05-09T08:27:24.679Z,33.36
2024-05-09T08:28:24.782Z,33.29
2024-05-09T08:29:24.675Z,33.25
2024-05-09T08:30:32.535Z,33.23
2024-05-09T08:31:25.839Z,33.24
2024-05-09T08:32:24.807Z,33.25
2024-05-09T08:33:24.791Z,33.26
2024-05-09T08:34:24.792Z,33.24
2024-05-09T08:35:24.705Z,33.25
2024-05-09T08:36:24.679Z,33.26
2024-05-09T08:37:27.859Z,33.24
2024-05-09T08:38:25.690Z,33.23
2024-05-09T08:39:24.684Z,33.21
2024-05-09T08:40:31.074Z,33.19
2024-05-09T08:41:25.686Z,33.21
2024-05-09T08:42:24.691Z,33.19
2024-05-09T08:43:24.754Z,33.17
2024-05-09T08:44:24.725Z,33.17
2024-05-09T08:45:24.701Z,33.17
2024-05-09T08:46:24.829Z,33.16
2024-05-09T08:47:24.772Z,33.16
2024-05-09T08:48:24.921Z,33.15
2024-05-09T08:49:24.759Z,33.16
2024-05-09T08:50:32.283Z,33.15
2024-05-09T08:51:25.669Z,33.14
2024-05-09T08:52:24.671Z,33.14
2024-05-09T08:53:24.676Z,33.10
2024-05-09T08:54:24.676Z,33.09
2024-05-09T08:55:24.703Z,33.09
2024-05-09T08:56:24.647Z,33.10
2024-05-09T08:57:24.895Z,33.10
2024-05-09T08:58:24.794Z,33.08
2024-05-09T08:59:24.650Z,33.09
2024-05-09T09:00:33.784Z,33.05
2024-05-09T09:01:25.795Z,33.05
2024-05-09T09:02:24.856Z,33.06
2024-05-09T09:03:24.871Z,33.07
2024-05-09T09:04:24.759Z,33.04
2024-05-09T09:05:24.792Z,33.02
2024-05-09T09:06:24.626Z,33.00
2024-05-09T09:07:24.701Z,32.99
2024-05-09T09:08:24.722Z,33.00
2024-05-09T09:09:24.619Z,33.01
2024-05-09T09:10:30.053Z,32.99
2024-05-09T09:11:25.659Z,33.01
2024-05-09T09:12:24.606Z,33.00
2024-05-09T09:13:24.664Z,32.96
2024-05-09T09:14:24.609Z,32.93
2024-05-09T09:15:24.639Z,32.97
2024-05-09T09:16:24.823Z,32.95
2024-05-09T09:17:24.642Z,32.94
2024-05-09T09:18:24.621Z,32.94
2024-05-09T09:19:24.778Z,32.91
2024-05-09T09:20:29.539Z,32.95
2024-05-09T09:21:25.575Z,32.98
2024-05-09T09:22:24.608Z,32.94
2024-05-09T09:23:24.596Z,32.92
2024-05-09T09:24:24.587Z,32.89
2024-05-09T09:25:24.552Z,32.89
2024-05-09T09:26:24.566Z,32.84
2024-05-09T09:27:24.551Z,32.81
2024-05-09T09:28:24.558Z,32.82
2024-05-09T09:29:24.533Z,32.84
2024-05-09T09:30:34.630Z,32.82
2024-05-09T09:31:25.620Z,32.83
2024-05-09T09:32:24.566Z,32.82
2024-05-09T09:33:24.648Z,32.80
2024-05-09T09:34:24.733Z,32.81
2024-05-09T09:35:24.513Z,32.81
2024-05-09T09:36:24.521Z,32.83
2024-05-09T09:37:24.585Z,32.85
2024-05-09T09:38:24.515Z,32.88
2024-05-09T09:39:24.519Z,32.87
2024-05-09T09:40:31.064Z,32.86
2024-05-09T09:41:25.506Z,32.89
2024-05-09T09:42:24.481Z,32.87
2024-05-09T09:43:24.511Z,32.87
2024-05-09T09:44:24.491Z,32.86
2024-05-09T09:45:24.496Z,32.85
2024-05-09T09:46:24.620Z,32.88
2024-05-09T09:47:24.550Z,32.88
2024-05-09T09:48:24.522Z,32.85
2024-05-09T09:49:24.522Z,32.91
2024-05-09T09:50:31.764Z,32.89
2024-05-09T09:51:25.468Z,32.86
2024-05-09T09:52:24.570Z,32.88
2024-05-09T09:53:24.469Z,32.88
2024-05-09T09:54:24.444Z,32.86
2024-05-09T09:55:24.457Z,32.86
2024-05-09T09:56:24.427Z,32.85
2024-05-09T09:57:24.409Z,32.86
2024-05-09T09:58:24.532Z,32.82
2024-05-09T09:59:24.381Z,32.81
2024-05-09T10:00:30.503Z,32.78
2024-05-09T10:01:25.440Z,32.79
2024-05-09T10:02:24.554Z,32.80
2024-05-09T10:03:24.465Z,32.77
2024-05-09T10:04:24.418Z,32.77
2024-05-09T10:05:24.627Z,32.75
2024-05-09T10:06:24.350Z,32.74
2024-05-09T10:07:24.416Z,32.73
2024-05-09T10:08:24.366Z,32.71
2024-05-09T10:09:24.338Z,32.76
2024-05-09T10:11:24.350Z,32.79
2024-05-09T10:12:24.436Z,32.76
2024-05-09T10:13:24.464Z,32.76
2024-05-09T10:14:24.311Z,32.77
2024-05-09T10:15:24.327Z,32.75
2024-05-09T10:16:24.547Z,32.76
2024-05-09T10:17:24.359Z,32.75
2024-05-09T10:18:26.114Z,32.77
2024-05-09T10:19:24.440Z,32.77
2024-05-09T10:20:28.087Z,32.76
2024-05-09T10:21:25.298Z,32.75
2024-05-09T10:22:24.391Z,32.74
2024-05-09T10:23:24.329Z,32.74
2024-05-09T10:24:24.276Z,32.71
2024-05-09T10:25:24.565Z,32.74
2024-05-09T10:26:24.253Z,32.73
2024-05-09T10:27:24.256Z,32.74
2024-05-09T10:28:24.273Z,32.73
2024-05-09T10:29:24.230Z,32.74
2024-05-09T10:30:33.332Z,32.75
2024-05-09T10:31:25.241Z,32.76
2024-05-09T10:32:24.356Z,32.74
2024-05-09T10:33:24.269Z,32.75
2024-05-09T10:34:24.562Z,32.73
2024-05-09T10:35:24.229Z,32.73
2024-05-09T10:36:24.203Z,32.73
2024-05-09T10:37:24.322Z,32.72
2024-05-09T10:38:24.229Z,32.70
2024-05-09T10:39:24.199Z,32.62
2024-05-09T10:40:30.975Z,32.61
2024-05-09T10:41:25.207Z,32.60
2024-05-09T10:42:24.204Z,32.58
2024-05-09T10:43:24.242Z,32.57
2024-05-09T10:44:24.201Z,32.57
2024-05-09T10:45:24.168Z,32.59
2024-05-09T10:46:24.238Z,32.61
2024-05-09T10:48:24.342Z,32.59
2024-05-09T10:49:24.296Z,32.62
2024-05-09T10:50:28.747Z,32.60
2024-05-09T10:51:25.110Z,32.56
2024-05-09T10:52:24.187Z,32.51
2024-05-09T10:53:24.116Z,32.50
2024-05-09T10:54:24.127Z,32.46
2024-05-09T10:55:24.171Z,32.48
2024-05-09T10:56:24.099Z,32.47
2024-05-09T10:57:24.098Z,32.47
2024-05-09T10:58:24.144Z,32.44
2024-05-09T10:59:24.076Z,32.44
2024-05-09T11:00:33.059Z,32.44
2024-05-09T11:01:25.174Z,32.47
2024-05-09T11:02:24.214Z,32.45
2024-05-09T11:03:24.117Z,32.42
2024-05-09T11:04:24.127Z,32.44
2024-05-09T11:05:24.157Z,32.46
2024-05-09T11:06:24.042Z,32.48
2024-05-09T11:07:24.117Z,32.47
2024-05-09T11:08:24.028Z,32.45
2024-05-09T11:09:24.017Z,32.47
2024-05-09T11:10:27.617Z,32.37
2024-05-09T11:11:25.118Z,32.39
2024-05-09T11:12:24.923Z,32.38
2024-05-09T11:13:24.032Z,32.36
2024-05-09T11:14:23.994Z,32.36
2024-05-09T11:15:23.993Z,32.33
2024-05-09T11:16:24.063Z,32.31
2024-05-09T11:17:24.100Z,32.32
2024-05-09T11:18:25.104Z,32.30
2024-05-09T11:19:24.087Z,32.29
2024-05-09T11:20:29.509Z,32.33
2024-05-09T11:21:25.041Z,32.29
2024-05-09T11:22:24.028Z,32.25
2024-05-09T11:23:23.971Z,32.29
2024-05-09T11:24:23.923Z,32.26
2024-05-09T11:25:23.969Z,32.24
2024-05-09T11:26:23.902Z,32.23
2024-05-09T11:27:23.951Z,32.20
2024-05-09T11:28:23.907Z,32.23
2024-05-09T11:29:23.887Z,32.25
2024-05-09T11:30:29.964Z,32.19
2024-05-09T11:31:25.053Z,32.21
2024-05-09T11:32:23.940Z,32.22
2024-05-09T11:33:23.963Z,32.19
2024-05-09T11:34:23.934Z,32.17
2024-05-09T11:35:23.877Z,32.19
2024-05-09T11:36:23.885Z,32.15
2024-05-09T11:37:23.938Z,32.16
2024-05-09T11:38:23.877Z,32.17
2024-05-09T11:39:23.886Z,32.17
2024-05-09T11:40:25.825Z,32.18
2024-05-09T11:41:24.899Z,32.18
2024-05-09T11:42:23.858Z,32.17
2024-05-09T11:43:23.993Z,32.14
2024-05-09T11:44:23.855Z,32.16
2024-05-09T11:45:23.854Z,32.17
2024-05-09T11:46:23.990Z,32.17
2024-05-09T11:47:23.975Z,32.15
2024-05-09T11:48:24.019Z,32.14
2024-05-09T11:49:25.444Z,32.07
2024-05-09T11:50:29.918Z,32.08
2024-05-09T11:51:24.838Z,32.13
2024-05-09T11:52:23.899Z,32.15
2024-05-09T11:53:23.843Z,32.13
2024-05-09T11:54:23.812Z,32.11
2024-05-09T11:55:26.820Z,32.13
2024-05-09T11:56:23.803Z,32.13
2024-05-09T11:57:23.814Z,32.13
2024-05-09T11:58:23.963Z,32.11
2024-05-09T11:59:23.811Z,32.09
2024-05-09T12:00:33.192Z,32.07
2024-05-09T12:01:27.482Z,32.04
2024-05-09T12:02:24.001Z,32.02
2024-05-09T12:03:24.294Z,32.02
2024-05-09T12:04:23.989Z,32.02
2024-05-09T12:05:23.882Z,32.05
2024-05-09T12:06:23.728Z,32.04
2024-05-09T12:07:23.944Z,32.02
2024-05-09T12:08:23.721Z,31.93
2024-05-09T12:09:23.711Z,31.92
2024-05-09T12:10:32.089Z,31.88
2024-05-09T12:11:24.737Z,31.94
2024-05-09T12:12:23.715Z,31.95
2024-05-09T12:13:23.768Z,31.99
2024-05-09T12:14:23.642Z,31.99
2024-05-09T12:15:23.641Z,31.97
2024-05-09T12:16:23.834Z,31.97
2024-05-09T12:17:23.695Z,32.00
2024-05-09T12:18:23.644Z,32.02
2024-05-09T12:19:23.653Z,31.99
2024-05-09T12:20:28.899Z,31.99
2024-05-09T12:21:24.654Z,32.00
2024-05-09T12:22:23.620Z,31.97
2024-05-09T12:23:23.585Z,31.95
2024-05-09T12:24:23.554Z,31.94
2024-05-09T12:25:23.638Z,31.95
2024-05-09T12:26:23.543Z,31.94
2024-05-09T12:27:23.523Z,31.89
2024-05-09T12:28:23.615Z,31.87
2024-05-09T12:29:23.494Z,31.84
2024-05-09T12:30:32.803Z,31.84
2024-05-09T12:31:24.549Z,31.87
2024-05-09T12:32:23.550Z,31.87
2024-05-09T12:33:23.598Z,31.87
2024-05-09T12:34:23.526Z,31.87
2024-05-09T12:35:23.463Z,31.90
2024-05-09T12:36:23.442Z,31.86
2024-05-09T12:37:23.462Z,31.88
2024-05-09T12:38:23.467Z,31.88
2024-05-09T12:39:23.435Z,31.86
2024-05-09T12:40:31.816Z,31.83
2024-05-09T12:41:24.394Z,31.79
2024-05-09T12:42:27.407Z,31.79
2024-05-09T12:43:24.465Z,31.80
2024-05-09T12:44:23.379Z,31.79
2024-05-09T12:45:23.350Z,31.81
2024-05-09T12:46:23.557Z,31.80
2024-05-09T12:47:23.352Z,31.76
2024-05-09T12:48:23.362Z,31.74
2024-05-09T12:49:23.550Z,31.75
2024-05-09T12:50:29.933Z,31.79
2024-05-09T12:51:24.276Z,31.78
2024-05-09T12:52:23.375Z,31.75
2024-05-09T12:53:23.233Z,31.76
2024-05-09T12:54:23.229Z,31.76
2024-05-09T12:55:23.254Z,31.74
2024-05-09T12:56:23.197Z,31.72
2024-05-09T12:57:23.212Z,31.70
2024-05-09T12:58:23.310Z,31.70
2024-05-09T12:59:23.192Z,31.72
2024-05-09T13:00:28.253Z,31.73